Eden, Utah
Current Conditions -  °F | °C
As of 7:53 PM on Sunday 23 Nov 2014 (Local Time) from KOGD Reporting Station
Broken Clouds Broken Clouds  
Wind Chill: 28°   Ceiling: 6000
Heat Index: 33°   Visibility: 10mi
Dew Point: 24°   Wind: 6mph
Humidity: 70%   Direction: 170°S
Pressure: 30.22"   Gusts: NA
Location:  41.3°N, 111.81°W
Report Text: KOGD 240253Z AUTO 17005KT 10SM BKN060 01/M04 A3022 RMK AO2 SLP243 T00061044 53001 TSNO
Loading
Personal Weather Stations






























Interactive Weather Map New forecast layout! Learn more

10-Day Weather Forecast

Advertisements
Track Severe Weather on mobile